Time;durP1;ratioP1;P1;durP2;ratioP2;P2;SDS_P1;SDS_P2;PMS_P1;PMS_P2;Temp;Humidity;BMP_temperature;BMP_pressure;BME280_temperature;BME280_humidity;BME280_pressure;Samples;Min_cycle;Max_cycle;Signal;HPM_P1;HPM_P2
2021/08/10 00:00:39;;;;;;;10.55;7.70;;;;;;;19.02;65.50;98934.88;5031618;28;20029;-52
2021/08/10 00:03:05;;;;;;;9.02;4.43;;;;;;;18.94;65.50;98931.59;5031472;28;20399;-52
2021/08/10 00:05:31;;;;;;;13.93;7.32;;;;;;;19.04;65.29;98938.88;5031831;28;20029;-52
2021/08/10 00:07:56;;;;;;;12.32;9.80;;;;;;;19.12;64.84;98933.09;5031535;28;20030;-52
2021/08/10 00:10:22;;;;;;;11.25;7.93;;;;;;;19.18;64.85;98933.97;5030185;28;20033;-52
2021/08/10 00:12:49;;;;;;;11.00;6.05;;;;;;;19.13;64.84;98937.38;5031503;28;20101;-52
2021/08/10 00:15:15;;;;;;;7.10;4.95;;;;;;;18.94;64.84;98936.09;5031516;28;20026;-52
2021/08/10 00:17:41;;;;;;;12.20;9.73;;;;;;;18.92;65.20;98936.34;5030150;28;20083;-52
2021/08/10 00:20:08;;;;;;;12.73;4.80;;;;;;;19.15;65.16;98934.47;5031660;28;20022;-52
2021/08/10 00:22:34;;;;;;;9.70;8.85;;;;;;;19.45;64.50;98930.50;5031186;28;20053;-52
2021/08/10 00:25:00;;;;;;;7.82;4.88;;;;;;;19.52;63.46;98933.78;5046678;28;20028;-52
2021/08/10 00:27:25;;;;;;;22.85;20.83;;;;;;;19.41;63.48;98930.19;5031650;28;20060;-52
2021/08/10 00:29:51;;;;;;;9.68;6.63;;;;;;;19.45;63.74;98933.16;5031383;28;20025;-52
2021/08/10 00:32:17;;;;;;;43.47;39.30;;;;;;;19.60;63.09;98935.97;5031372;28;20071;-53
2021/08/10 00:34:42;;;;;;;15.00;7.82;;;;;;;19.36;63.04;98932.81;5031350;28;20033;-53
2021/08/10 00:37:09;;;;;;;8.10;6.05;;;;;;;19.17;63.71;98935.00;5031317;28;20030;-52
2021/08/10 00:39:36;;;;;;;12.68;9.07;;;;;;;18.86;63.83;98941.88;5031361;28;20022;-52
2021/08/10 00:42:03;;;;;;;4.10;3.20;;;;;;;18.57;64.63;98942.00;5048747;28;20021;-52
2021/08/10 00:44:29;;;;;;;5.97;3.78;;;;;;;18.46;65.12;98950.91;5034961;28;20067;-52
2021/08/10 00:46:55;;;;;;;8.88;5.03;;;;;;;18.22;65.55;98942.31;5035191;28;20453;-52
2021/08/10 00:49:20;;;;;;;18.50;16.70;;;;;;;17.96;66.22;98945.38;5050478;28;20108;-52
2021/08/10 00:51:48;;;;;;;60.60;55.05;;;;;;;17.99;66.42;98949.44;5033446;28;20072;-52
2021/08/10 00:54:15;;;;;;;10.82;7.57;;;;;;;18.06;66.21;98947.41;5033468;28;20026;-52
2021/08/10 00:56:41;;;;;;;8.20;4.93;;;;;;;18.11;65.75;98947.50;5034642;28;20021;-52
2021/08/10 00:59:07;;;;;;;13.57;10.98;;;;;;;17.92;66.17;98954.09;5034620;28;20057;-52
2021/08/10 01:01:32;;;;;;;30.65;27.95;;;;;;;17.59;66.89;98955.66;5034639;28;20106;-51
2021/08/10 01:03:58;;;;;;;9.18;6.50;;;;;;;17.39;67.42;98961.41;5034479;28;20033;-52
2021/08/10 01:06:38;;;;;;;47.50;42.58;;;;;;;17.39;67.86;98960.59;5034471;28;20055;-52
2021/08/10 01:09:11;;;;;;;72.40;65.45;;;;;;;17.45;67.69;98957.78;5034749;28;20034;-52
2021/08/10 01:12:04;;;;;;;42.20;38.38;;;;;;;17.34;68.17;98948.03;5033129;28;20048;-52
2021/08/10 01:14:53;;;;;;;7.57;4.35;;;;;;;17.28;68.57;98941.81;5034476;28;20022;-53
2021/08/10 01:17:27;;;;;;;19.92;13.18;;;;;;;17.34;68.33;98954.16;5034409;28;20076;-52
2021/08/10 01:20:11;;;;;;;8.00;5.82;;;;;;;17.34;68.33;98938.25;5034341;28;20034;-52
2021/08/10 01:22:40;;;;;;;24.08;21.45;;;;;;;17.28;68.46;98957.75;5034074;28;20404;-52
2021/08/10 01:25:54;;;;;;;6.85;3.55;;;;;;;17.13;68.66;98946.88;5034079;28;20022;-52
2021/08/10 01:28:34;;;;;;;26.35;23.95;;;;;;;17.01;68.93;98943.44;5034161;28;20041;-52
2021/08/10 01:31:06;;;;;;;8.00;3.20;;;;;;;16.90;69.11;98939.78;5034094;28;20021;-52
2021/08/10 01:33:37;;;;;;;13.10;11.70;;;;;;;16.93;69.06;98940.13;5034052;28;20037;-52
2021/08/10 01:36:06;;;;;;;7.85;5.00;;;;;;;17.10;68.76;98942.84;5034028;28;20064;-52
2021/08/10 01:38:34;;;;;;;21.88;16.48;;;;;;;17.24;68.28;98943.34;5034211;28;20368;-52
2021/08/10 01:41:01;;;;;;;10.82;6.13;;;;;;;17.39;67.88;98936.72;5033874;28;20021;-52
2021/08/10 01:43:29;;;;;;;9.82;5.05;;;;;;;17.50;67.46;98934.00;5033752;28;20068;-52
2021/08/10 01:45:58;;;;;;;17.58;8.90;;;;;;;17.42;67.36;98934.38;5049005;28;20024;-53
2021/08/10 01:48:25;;;;;;;36.00;32.67;;;;;;;17.39;67.35;98936.72;5033784;28;20025;-52
2021/08/10 01:50:51;;;;;;;8.35;4.60;;;;;;;17.48;67.35;98936.06;5033871;28;20419;-52
2021/08/10 01:53:18;;;;;;;14.18;12.85;;;;;;;17.76;66.90;98937.06;5032916;28;20026;-52
2021/08/10 01:55:46;;;;;;;8.50;7.07;;;;;;;17.99;65.65;98932.66;5033553;28;20095;-52
2021/08/10 01:58:12;;;;;;;5.07;3.60;;;;;;;17.80;65.50;98932.88;5033589;28;20052;-52
2021/08/10 02:00:41;;;;;;;5.30;4.80;;;;;;;17.49;66.22;98937.69;5033503;28;20056;-52
2021/08/10 02:03:11;;;;;;;10.15;3.75;;;;;;;17.20;67.29;98930.81;5033237;28;20029;-53
2021/08/10 02:05:38;;;;;;;23.40;21.20;;;;;;;16.91;68.37;98934.25;5032084;28;20025;-52
2021/08/10 02:08:04;;;;;;;8.68;5.78;;;;;;;16.72;69.35;98936.25;5032187;28;20026;-52
2021/08/10 02:10:31;;;;;;;4.82;3.20;;;;;;;16.55;70.17;98933.50;5048584;28;20029;-52
2021/08/10 02:12:59;;;;;;;30.52;27.58;;;;;;;16.43;70.75;98938.00;5033255;28;20065;-52
2021/08/10 02:15:25;;;;;;;5.97;3.45;;;;;;;16.33;71.01;98940.44;5033217;28;20025;-51
2021/08/10 02:17:51;;;;;;;7.22;5.60;;;;;;;16.29;71.25;98931.34;5048509;28;20051;-52
2021/08/10 02:20:16;;;;;;;12.18;9.85;;;;;;;16.22;71.50;98930.63;5033134;28;20045;-51
2021/08/10 02:22:46;;;;;;;8.40;4.10;;;;;;;16.14;71.42;98926.53;5032886;28;20523;-52
2021/08/10 02:25:17;;;;;;;8.52;7.50;;;;;;;16.11;71.35;98932.25;5033248;28;20064;-52
2021/08/10 02:27:53;;;;;;;14.25;11.93;;;;;;;16.16;71.26;98933.19;5033255;28;20399;-51
2021/08/10 02:30:26;;;;;;;15.85;12.98;;;;;;;16.34;70.57;98920.88;5048296;28;20377;-52
2021/08/10 02:32:54;;;;;;;17.55;15.63;;;;;;;16.45;70.04;98920.03;5048308;28;20068;-52
2021/08/10 02:35:23;;;;;;;14.45;10.75;;;;;;;16.64;69.64;98919.88;5047975;28;20112;-52
2021/08/10 02:37:50;;;;;;;9.18;3.47;;;;;;;16.57;69.45;98918.16;5032788;28;20029;-52
2021/08/10 02:40:18;;;;;;;9.65;8.18;;;;;;;16.40;70.02;98912.00;5031445;28;20025;-52
2021/08/10 02:42:49;;;;;;;9.48;8.05;;;;;;;16.36;70.08;98913.50;5032907;28;20021;-52
2021/08/10 02:45:14;;;;;;;23.75;21.33;;;;;;;16.46;69.97;98907.59;5032989;28;20467;-52
2021/08/10 02:47:51;;;;;;;11.23;6.18;;;;;;;16.43;69.80;98916.00;5047989;28;20101;-52
2021/08/10 02:50:18;;;;;;;16.35;10.43;;;;;;;16.34;69.79;98915.56;5032636;28;20033;-52
2021/08/10 02:52:44;;;;;;;13.15;11.23;;;;;;;16.42;69.88;98917.88;5032463;28;20426;-52
2021/08/10 02:55:10;;;;;;;7.72;2.97;;;;;;;16.35;69.89;98906.56;5032692;28;20072;-52
2021/08/10 02:57:41;;;;;;;11.43;8.57;;;;;;;16.21;70.44;98915.81;5032453;28;20032;-52
2021/08/10 03:00:14;;;;;;;12.88;4.90;;;;;;;16.07;70.89;98907.28;5032521;28;20133;-52
2021/08/10 03:02:48;;;;;;;15.13;13.55;;;;;;;15.94;71.74;98909.13;5032378;28;20100;-51
2021/08/10 03:05:21;;;;;;;9.15;3.53;;;;;;;15.85;71.89;98907.84;5032319;28;20030;-52
2021/08/10 03:07:53;;;;;;;8.43;4.85;;;;;;;15.81;72.03;98908.53;5032294;28;20067;-52
2021/08/10 03:10:20;;;;;;;14.90;6.72;;;;;;;15.80;71.94;98904.28;5032222;28;20059;-52
2021/08/10 03:12:56;;;;;;;6.53;3.85;;;;;;;15.74;72.30;98901.50;5047436;28;20025;-52
2021/08/10 03:15:28;;;;;;;14.07;12.68;;;;;;;15.67;72.40;98899.97;5032253;28;20067;-52
2021/08/10 03:17:58;;;;;;;13.00;9.32;;;;;;;15.66;72.48;98899.16;5032108;28;20029;-52
2021/08/10 03:20:24;;;;;;;10.48;6.20;;;;;;;15.69;72.54;98901.34;5032133;28;20453;-51
2021/08/10 03:22:55;;;;;;;5.00;3.83;;;;;;;15.69;72.59;98898.69;5031704;28;20120;-52
2021/08/10 03:25:24;;;;;;;9.70;7.93;;;;;;;15.65;72.51;98902.03;5032226;28;20411;-52
2021/08/10 03:27:51;;;;;;;7.43;4.63;;;;;;;15.67;72.38;98906.06;5032200;28;20033;-53
2021/08/10 03:30:18;;;;;;;5.82;5.15;;;;;;;15.77;72.16;98905.53;5031967;28;20075;-52
2021/08/10 03:32:46;;;;;;;10.13;5.18;;;;;;;15.84;71.79;98906.25;5031936;28;20495;-52
2021/08/10 03:35:12;;;;;;;13.10;9.65;;;;;;;15.86;71.59;98906.03;5031885;28;20033;-52
2021/08/10 03:37:38;;;;;;;8.20;6.25;;;;;;;15.86;71.60;98906.81;5031828;28;20030;-52
2021/08/10 03:40:06;;;;;;;10.43;4.20;;;;;;;15.88;71.47;98904.75;5047404;28;20037;-52
2021/08/10 03:42:36;;;;;;;27.52;24.42;;;;;;;16.11;71.46;98908.44;5031856;28;20021;-52
2021/08/10 03:45:02;;;;;;;9.93;5.45;;;;;;;16.64;70.95;98896.03;5031668;28;20031;-52
2021/08/10 03:47:28;;;;;;;14.57;12.13;;;;;;;17.01;69.65;98891.22;5031767;28;20032;-52
2021/08/10 03:49:54;;;;;;;14.15;4.35;;;;;;;17.33;68.58;98893.38;5031734;28;20022;-52
2021/08/10 03:52:23;;;;;;;44.42;39.75;;;;;;;17.62;67.52;98888.81;5030380;28;20565;-52
2021/08/10 03:54:49;;;;;;;10.52;5.95;;;;;;;17.92;66.51;98890.38;5030379;28;20511;-52
2021/08/10 03:57:21;;;;;;;16.60;14.38;;;;;;;18.10;65.52;98889.28;5031861;28;20088;-51
2021/08/10 03:59:54;;;;;;;10.05;6.80;;;;;;;18.09;65.00;98887.66;5031722;28;20025;-52
2021/08/10 04:02:20;;;;;;;7.30;5.25;;;;;;;17.84;65.37;98883.59;5031629;28;20033;-52
2021/08/10 04:04:51;;;;;;;9.57;7.03;;;;;;;17.72;65.78;98888.97;5030234;28;20022;-53
2021/08/10 04:07:17;;;;;;;17.73;15.48;;;;;;;17.63;65.68;98885.13;5031666;28;20566;-52
2021/08/10 04:09:44;;;;;;;9.65;8.23;;;;;;;17.45;65.88;98888.81;5031504;28;20034;-52
2021/08/10 04:12:11;;;;;;;13.20;10.80;;;;;;;17.29;66.54;98886.94;5031490;28;20029;-52
2021/08/10 04:14:39;;;;;;;9.45;8.30;;;;;;;17.16;66.57;98888.03;5031732;28;20098;-52
2021/08/10 04:17:06;;;;;;;14.15;12.52;;;;;;;17.00;66.94;98883.50;5033923;28;20108;-52
2021/08/10 04:19:36;;;;;;;57.38;52.70;;;;;;;16.94;67.14;98886.06;5034176;28;20018;-52
2021/08/10 04:22:03;;;;;;;8.55;7.65;;;;;;;16.96;67.25;98891.13;5035099;28;20045;-52
2021/08/10 04:24:29;;;;;;;45.47;41.20;;;;;;;17.17;67.40;98889.66;5035274;28;20084;-52
2021/08/10 04:26:55;;;;;;;11.98;6.13;;;;;;;17.36;66.45;98893.72;5035236;28;20132;-52
2021/08/10 04:29:22;;;;;;;12.70;9.40;;;;;;;17.29;66.01;98898.34;5035249;28;20022;-52
2021/08/10 04:31:48;;;;;;;8.60;4.13;;;;;;;17.00;66.44;98894.09;5035154;28;20029;-52
2021/08/10 04:34:13;;;;;;;9.77;5.03;;;;;;;16.60;67.42;98895.72;5035136;28;20108;-52
2021/08/10 04:36:39;;;;;;;12.35;5.10;;;;;;;16.31;68.25;98895.63;5050414;28;20471;-52
2021/08/10 04:39:05;;;;;;;17.80;16.02;;;;;;;16.09;69.24;98898.06;5035044;28;20403;-53
2021/08/10 04:41:31;;;;;;;7.65;6.82;;;;;;;15.90;69.96;98889.44;5033783;28;20044;-52
2021/08/10 04:43:57;;;;;;;7.03;4.65;;;;;;;15.76;70.73;98898.66;5050289;28;20033;-52
2021/08/10 04:46:25;;;;;;;27.67;24.75;;;;;;;15.65;71.20;98894.91;5034856;28;20022;-51
2021/08/10 04:48:50;;;;;;;6.10;4.43;;;;;;;15.60;71.33;98896.63;5035151;28;20033;-52
2021/08/10 04:51:16;;;;;;;15.88;14.38;;;;;;;15.59;71.33;98898.47;5034841;28;20022;-52
2021/08/10 04:53:45;;;;;;;53.38;48.15;;;;;;;15.88;72.52;98899.47;5035036;28;20060;-52
2021/08/10 04:56:11;;;;;;;37.35;33.40;;;;;;;16.24;73.17;98897.63;5034757;28;20033;-52
2021/08/10 04:58:38;;;;;;;59.30;53.83;;;;;;;16.35;71.72;98899.44;5034688;28;20025;-52
2021/08/10 05:01:05;;;;;;;14.55;8.57;;;;;;;16.60;72.33;98901.00;5033338;28;20113;-52
2021/08/10 05:03:31;;;;;;;9.77;7.57;;;;;;;17.03;70.53;98896.28;5033200;28;20068;-51
2021/08/10 05:05:58;;;;;;;13.48;8.30;;;;;;;17.22;68.64;98889.72;5034489;28;20029;-52
2021/08/10 05:08:24;;;;;;;23.92;12.70;;;;;;;17.41;67.74;98900.16;5034471;28;20033;-52
2021/08/10 05:10:49;;;;;;;16.25;8.90;;;;;;;17.71;66.54;98900.66;5049766;28;20052;-51
2021/08/10 05:13:16;;;;;;;12.52;9.13;;;;;;;18.30;65.24;98891.44;5034488;28;20086;-51
2021/08/10 05:15:41;;;;;;;13.82;7.72;;;;;;;19.00;62.79;98900.53;5034367;28;20075;-52
2021/08/10 05:18:07;;;;;;;12.02;7.53;;;;;;;19.51;60.77;98893.00;5034605;28;20461;-52
2021/08/10 05:20:33;;;;;;;20.55;12.18;;;;;;;19.91;59.87;98898.94;5032728;28;20617;-52
2021/08/10 05:22:59;;;;;;;43.90;38.80;;;;;;;20.73;58.35;98902.06;5049499;28;20396;-52
2021/08/10 05:25:25;;;;;;;36.35;6.95;;;;;;;21.49;56.48;98901.44;5049516;28;20396;-52
2021/08/10 05:27:54;;;;;;;53.13;6.55;;;;;;;21.93;55.29;98902.75;5033063;28;20025;-53
2021/08/10 05:30:19;;;;;;;16.48;8.18;;;;;;;22.02;55.03;98895.81;5049538;28;20391;-52
2021/08/10 05:32:45;;;;;;;20.98;11.50;;;;;;;22.19;54.96;98897.38;5049365;28;20036;-52
2021/08/10 05:35:11;;;;;;;11.15;4.28;;;;;;;22.79;53.28;98892.09;5034244;28;20484;-52
2021/08/10 05:37:36;;;;;;;50.08;42.70;;;;;;;23.25;52.14;98897.22;5034025;28;20044;-52
2021/08/10 05:40:02;;;;;;;134.88;105.63;;;;;;;23.63;50.69;98892.09;5033940;28;20029;-52
2021/08/10 05:42:28;;;;;;;24.52;19.65;;;;;;;24.15;49.36;98893.25;5033831;28;20029;-52
2021/08/10 05:44:54;;;;;;;61.78;37.00;;;;;;;24.78;48.07;98892.25;5033836;28;20422;-52
2021/08/10 05:47:19;;;;;;;15.93;5.18;;;;;;;25.53;45.89;98896.00;5033804;28;20132;-52
2021/08/10 05:49:45;;;;;;;16.70;3.92;;;;;;;25.99;44.39;98895.25;5033802;28;20101;-52
2021/08/10 05:52:11;;;;;;;21.35;5.97;;;;;;;26.55;43.27;98897.97;5033708;28;20022;-52
2021/08/10 05:54:37;;;;;;;25.08;9.88;;;;;;;27.10;41.79;98889.78;5033685;28;20438;-52
2021/08/10 05:57:04;;;;;;;19.48;7.63;;;;;;;27.58;40.94;98891.09;5033652;28;20534;-52
2021/08/10 05:59:29;;;;;;;10.13;5.28;;;;;;;28.11;39.64;98895.72;5032526;28;20395;-52
2021/08/10 06:01:59;;;;;;;10.90;3.75;;;;;;;28.56;38.31;98890.16;5033464;28;20022;-52
2021/08/10 06:04:25;;;;;;;20.80;11.40;;;;;;;28.96;37.40;98891.97;5033381;28;20029;-51
2021/08/10 06:06:51;;;;;;;10.52;4.38;;;;;;;29.28;36.66;98888.00;5033326;28;20034;-52
2021/08/10 06:09:17;;;;;;;8.60;3.85;;;;;;;29.15;36.17;98891.66;5033444;28;20026;-52
2021/08/10 06:11:42;;;;;;;9.98;3.22;;;;;;;28.99;36.65;98891.31;5033324;28;20075;-52
2021/08/10 06:14:08;;;;;;;11.20;8.32;;;;;;;29.18;36.42;98883.72;5033335;28;20495;-52
2021/08/10 06:16:34;;;;;;;14.55;4.90;;;;;;;29.57;35.89;98890.03;5033297;28;20505;-52
2021/08/10 06:19:01;;;;;;;7.35;2.97;;;;;;;29.85;35.13;98890.44;5048505;28;20021;-53
2021/08/10 06:21:27;;;;;;;9.57;6.68;;;;;;;29.89;35.00;98892.53;5033050;28;20060;-52
2021/08/10 06:23:57;;;;;;;8.25;3.75;;;;;;;30.23;34.40;98888.88;5033303;28;20479;-52
2021/08/10 06:26:23;;;;;;;11.45;4.57;;;;;;;30.74;33.66;98887.00;5033018;28;20034;-51
2021/08/10 06:28:49;;;;;;;12.10;5.32;;;;;;;31.39;32.81;98892.09;5031726;28;20028;-52
2021/08/10 06:31:14;;;;;;;7.03;2.90;;;;;;;32.00;31.59;98886.84;5033218;28;20029;-52
2021/08/10 06:33:41;;;;;;;15.48;12.15;;;;;;;32.50;31.10;98892.28;5033177;28;20032;-52
2021/08/10 06:36:07;;;;;;;22.58;16.90;;;;;;;32.86;30.71;98890.66;5032906;28;20036;-52
2021/08/10 06:38:33;;;;;;;11.82;4.22;;;;;;;32.97;29.74;98892.53;5047846;28;20026;-53
2021/08/10 06:40:59;;;;;;;20.63;14.63;;;;;;;33.11;29.75;98894.91;5048019;28;20049;-52
2021/08/10 06:43:25;;;;;;;14.60;5.72;;;;;;;33.77;28.85;98900.97;5047955;28;20171;-52
2021/08/10 06:45:51;;;;;;;24.70;17.42;;;;;;;34.08;28.49;98894.72;5032918;28;20116;-52
2021/08/10 06:48:17;;;;;;;7.28;3.10;;;;;;;34.16;28.18;98904.69;5032718;28;20704;-52
2021/08/10 06:50:42;;;;;;;4.63;2.30;;;;;;;34.45;28.29;98908.09;5031420;28;20026;-53
2021/08/10 06:53:08;;;;;;;9.43;4.10;;;;;;;34.41;28.13;98904.50;5032548;28;20025;-52
2021/08/10 06:55:33;;;;;;;9.02;4.72;;;;;;;34.48;28.16;98903.88;5031223;28;20029;-52
2021/08/10 06:57:59;;;;;;;16.98;12.43;;;;;;;34.63;28.05;98903.00;5031204;28;20164;-52
2021/08/10 07:00:25;;;;;;;14.50;3.42;;;;;;;34.92;27.70;98903.69;5031082;28;20057;-52
2021/08/10 07:02:52;;;;;;;12.25;4.00;;;;;;;35.13;27.16;98911.50;5047710;28;20021;-52
2021/08/10 07:05:18;;;;;;;9.77;5.45;;;;;;;34.84;27.59;98910.13;5032532;28;20557;-52
2021/08/10 07:07:43;;;;;;;11.15;2.92;;;;;;;34.86;27.49;98905.09;5032177;28;20036;-52
2021/08/10 07:10:10;;;;;;;12.20;4.78;;;;;;;34.88;27.92;98903.59;5032536;28;20026;-52
2021/08/10 07:12:35;;;;;;;7.00;2.95;;;;;;;34.42;28.29;98912.28;5032278;28;20033;-52
2021/08/10 07:15:01;;;;;;;10.55;4.57;;;;;;;34.49;28.47;98914.41;5047425;28;20033;-52
2021/08/10 07:17:27;;;;;;;9.82;3.17;;;;;;;34.48;28.24;98915.53;5032172;28;20037;-49
2021/08/10 07:19:53;;;;;;;11.40;3.33;;;;;;;34.35;28.60;98906.69;5032632;28;20037;-50
2021/08/10 07:22:18;;;;;;;9.82;2.88;;;;;;;34.31;28.93;98910.47;5031836;28;20051;-50
2021/08/10 07:24:46;;;;;;;8.55;2.55;;;;;;;34.35;29.28;98911.34;5032004;28;20029;-50
2021/08/10 07:27:12;;;;;;;11.80;4.97;;;;;;;34.60;28.89;98918.16;5031915;28;20030;-50
2021/08/10 07:29:38;;;;;;;9.40;2.80;;;;;;;35.13;28.07;98912.28;5031961;28;20086;-50
2021/08/10 07:32:04;;;;;;;5.88;2.80;;;;;;;35.88;27.39;98921.16;5030587;28;20412;-52
2021/08/10 07:34:29;;;;;;;6.30;2.67;;;;;;;37.12;25.82;98917.91;5047236;28;20438;-52
2021/08/10 07:36:55;;;;;;;7.53;2.92;;;;;;;37.98;24.42;98916.06;5031856;28;20018;-53
2021/08/10 07:39:21;;;;;;;7.28;3.03;;;;;;;37.98;24.32;98916.06;5031879;28;20056;-52
2021/08/10 07:41:46;;;;;;;17.85;3.45;;;;;;;38.21;24.48;98912.34;5032092;28;20030;-53
2021/08/10 07:44:12;;;;;;;17.38;4.88;;;;;;;38.71;23.75;98915.44;5047056;28;20038;-53
2021/08/10 07:46:38;;;;;;;9.25;3.10;;;;;;;39.17;22.51;98919.56;5047067;28;20387;-52
2021/08/10 07:49:03;;;;;;;7.45;3.13;;;;;;;39.30;22.97;98917.25;5032065;28;20037;-52
2021/08/10 07:51:29;;;;;;;9.35;2.97;;;;;;;39.21;22.20;98916.84;5030894;28;20444;-52
2021/08/10 07:53:56;;;;;;;9.02;2.85;;;;;;;39.20;22.19;98918.00;5031708;28;20037;-53
2021/08/10 07:56:22;;;;;;;7.78;3.25;;;;;;;38.85;22.59;98914.72;5031693;28;20033;-52
2021/08/10 07:58:47;;;;;;;10.45;3.38;;;;;;;39.02;22.51;98912.47;5031896;28;20033;-53
2021/08/10 08:01:13;;;;;;;12.65;4.30;;;;;;;39.30;22.11;98909.00;5046957;28;20025;-52
2021/08/10 08:03:39;;;;;;;9.23;2.63;;;;;;;39.43;21.80;98906.75;5031546;28;20026;-52
2021/08/10 08:06:05;;;;;;;7.72;2.47;;;;;;;39.18;21.80;98912.94;5030239;28;20028;-52
2021/08/10 08:08:30;;;;;;;4.55;2.70;;;;;;;39.08;22.18;98911.72;5031605;28;20064;-53
2021/08/10 08:10:58;;;;;;;9.32;3.05;;;;;;;39.25;21.61;98901.94;5031460;28;20075;-52
2021/08/10 08:13:25;;;;;;;9.65;4.13;;;;;;;39.47;21.27;98904.78;5031712;28;20059;-53
2021/08/10 08:15:52;;;;;;;5.90;3.63;;;;;;;39.65;21.18;98902.06;5031926;28;20030;-53
2021/08/10 08:18:18;;;;;;;9.68;2.35;;;;;;;39.60;21.44;98911.47;5046843;28;20511;-52
2021/08/10 08:20:49;;;;;;;6.47;2.78;;;;;;;39.38;22.21;98901.59;5031184;28;20033;-52
2021/08/10 08:23:16;;;;;;;11.40;4.03;;;;;;;39.15;21.81;98914.47;5031364;28;20018;-53
2021/08/10 08:25:42;;;;;;;9.18;4.80;;;;;;;39.39;21.91;98903.16;5031383;28;20562;-54
2021/08/10 08:28:12;;;;;;;4.93;2.70;;;;;;;39.57;21.60;98905.97;5031650;28;20037;-53
2021/08/10 08:30:39;;;;;;;4.10;2.38;;;;;;;38.91;22.23;98906.91;5046604;28;20407;-53
2021/08/10 08:33:06;;;;;;;9.18;4.57;;;;;;;38.96;22.54;98906.56;5031347;28;20025;-52
2021/08/10 08:35:33;;;;;;;10.32;4.10;;;;;;;39.40;21.84;98900.03;5046570;28;20160;-53
2021/08/10 08:37:58;;;;;;;8.63;2.58;;;;;;;39.68;21.40;98898.53;5029996;28;20017;-52
2021/08/10 08:40:24;;;;;;;4.90;2.47;;;;;;;40.03;21.35;98891.50;5031240;28;20036;-52
2021/08/10 08:42:51;;;;;;;7.35;2.25;;;;;;;40.24;20.55;98893.44;5029981;28;20395;-52
2021/08/10 08:45:16;;;;;;;7.00;2.65;;;;;;;39.61;21.25;98887.53;5031117;28;20079;-52
2021/08/10 08:47:51;;;;;;;5.03;2.70;;;;;;;38.82;22.17;98890.81;5031173;28;20057;-53
2021/08/10 08:50:18;;;;;;;16.90;5.10;;;;;;;38.83;22.52;98892.38;5031243;28;20037;-53
2021/08/10 08:52:51;;;;;;;8.50;2.97;;;;;;;39.81;21.96;98890.69;5031164;28;20028;-52
2021/08/10 08:55:21;;;;;;;7.97;2.80;;;;;;;40.28;21.84;98894.19;5031445;28;20046;-53
2021/08/10 08:57:47;;;;;;;11.65;3.10;;;;;;;40.88;21.18;98887.78;5031214;28;20166;-52
2021/08/10 09:00:15;;;;;;;7.30;2.65;;;;;;;41.11;20.58;98879.03;5031056;28;20022;-52
2021/08/10 09:02:41;;;;;;;11.65;2.75;;;;;;;41.26;20.50;98877.00;5048083;28;20030;-52
2021/08/10 09:05:08;;;;;;;9.80;2.80;;;;;;;41.33;20.72;98876.16;5050155;28;20033;-52
2021/08/10 09:07:34;;;;;;;19.33;5.63;;;;;;;41.63;20.39;98885.81;5049918;28;20041;-52
2021/08/10 09:10:15;;;;;;;5.95;2.50;;;;;;;41.98;20.84;98875.69;5049835;28;20403;-52
2021/08/10 09:12:59;;;;;;;12.10;3.10;;;;;;;42.13;20.87;98879.91;5034475;28;20033;-52
2021/08/10 09:15:37;;;;;;;8.63;2.92;;;;;;;42.16;20.94;98873.59;5034375;28;20071;-53
2021/08/10 09:18:15;;;;;;;9.27;2.85;;;;;;;42.40;20.74;98874.50;5034699;28;20403;-52
2021/08/10 09:21:01;;;;;;;65.85;9.20;;;;;;;42.25;20.48;98879.38;5049295;28;20026;-52
2021/08/10 09:23:42;;;;;;;7.13;2.70;;;;;;;42.40;20.35;98879.22;5034231;28;20025;-52
2021/08/10 09:26:09;;;;;;;7.47;2.25;;;;;;;42.62;20.45;98880.59;5049530;28;20455;-52
2021/08/10 09:28:38;;;;;;;12.05;3.20;;;;;;;42.80;19.81;98890.63;5034211;28;20021;-53
2021/08/10 09:31:29;;;;;;;9.23;2.65;;;;;;;42.50;20.43;98881.91;5034172;28;20488;-52
2021/08/10 09:34:00;;;;;;;6.55;2.65;;;;;;;42.41;20.67;98883.56;5034032;28;20021;-53
2021/08/10 09:36:27;;;;;;;8.05;3.00;;;;;;;42.38;20.61;98882.41;5034030;28;20557;-54
2021/08/10 09:38:53;;;;;;;7.35;3.03;;;;;;;42.06;20.47;98875.25;5034330;28;20121;-52
2021/08/10 09:41:19;;;;;;;12.10;4.60;;;;;;;41.58;21.42;98880.72;5032650;28;20069;-52
2021/08/10 09:43:45;;;;;;;9.85;5.00;;;;;;;41.56;21.27;98885.88;5033996;28;20041;-53
2021/08/10 09:46:17;;;;;;;4.78;3.33;;;;;;;41.64;21.45;98879.13;5033863;28;20030;-54
2021/08/10 09:48:49;;;;;;;5.97;2.53;;;;;;;41.58;21.60;98883.47;5033916;28;20021;-54
2021/08/10 09:51:18;;;;;;;8.55;2.63;;;;;;;42.03;21.54;98878.03;5033679;28;20041;-53
2021/08/10 09:53:59;;;;;;;5.75;2.50;;;;;;;42.17;21.13;98882.63;5033711;28;20036;-53
2021/08/10 09:56:53;;;;;;;10.15;2.80;;;;;;;42.03;21.17;98872.53;5049042;28;20083;-53
2021/08/10 09:59:23;;;;;;;;;;;;;;;42.53;20.96;98880.31;5034314;28;20037;-52
2021/08/10 10:01:53;;;;;;;8.88;5.05;;;;;;;42.92;20.63;98881.81;5033876;28;19909;-52
2021/08/10 10:04:20;;;;;;;9.27;3.30;;;;;;;42.73;20.54;98877.69;5033391;28;20025;-53
2021/08/10 10:06:51;;;;;;;4.47;2.75;;;;;;;42.70;20.78;98871.03;5048856;28;20561;-53
2021/08/10 10:09:19;;;;;;;4.95;2.63;;;;;;;42.64;20.73;98877.41;5033509;28;20034;-51
2021/08/10 10:11:48;;;;;;;8.63;3.60;;;;;;;42.57;21.04;98880.25;5033618;28;20064;-52
2021/08/10 10:14:15;;;;;;;3.30;2.40;;;;;;;42.67;20.37;98880.13;5047988;28;20035;-53
2021/08/10 10:16:44;;;;;;;4.80;2.90;;;;;;;43.13;20.36;98877.22;5033377;28;20021;-52
2021/08/10 10:19:13;;;;;;;3.85;2.10;;;;;;;42.98;20.27;98873.84;5033279;28;20029;-53
2021/08/10 10:21:50;;;;;;;4.57;2.80;;;;;;;42.39;21.25;98870.16;5033072;28;20037;-52
2021/08/10 10:24:19;;;;;;;4.35;2.70;;;;;;;42.39;21.37;98872.94;5033213;28;20041;-52
2021/08/10 10:26:48;;;;;;;5.78;2.85;;;;;;;41.78;21.61;98870.75;5033392;28;20403;-53
2021/08/10 10:29:16;;;;;;;3.08;2.38;;;;;;;41.80;21.40;98873.88;5048405;28;20017;-52
2021/08/10 10:31:43;;;;;;;5.60;2.67;;;;;;;41.77;21.61;98874.69;5032965;28;20104;-53
2021/08/10 10:34:12;;;;;;;7.25;3.67;;;;;;;41.68;21.75;98866.88;5032024;28;20441;-52
2021/08/10 10:36:42;;;;;;;3.17;2.72;;;;;;;41.52;21.98;98867.38;5033139;28;20429;-53
2021/08/10 10:39:08;;;;;;;7.10;2.95;;;;;;;41.50;21.97;98872.50;5032834;28;20027;-53
2021/08/10 10:41:36;;;;;;;3.60;2.47;;;;;;;41.45;21.96;98867.41;5048035;28;20064;-53
2021/08/10 10:44:03;;;;;;;6.25;2.85;;;;;;;41.68;21.79;98866.13;5032726;28;20025;-52
2021/08/10 10:46:37;;;;;;;7.60;2.50;;;;;;;42.00;21.35;98871.34;5032700;28;20075;-52
2021/08/10 10:49:05;;;;;;;2.88;2.15;;;;;;;41.99;21.27;98861.50;5032692;28;20033;-51
2021/08/10 10:51:34;;;;;;;8.38;2.90;;;;;;;41.66;21.68;98857.47;5047913;28;20431;-53
2021/08/10 10:54:27;;;;;;;5.03;2.67;;;;;;;41.31;21.79;98850.97;5031276;28;20064;-53
2021/08/10 10:57:02;;;;;;;7.15;2.75;;;;;;;41.60;21.24;98856.34;5032515;28;20061;-53
2021/08/10 10:59:36;;;;;;;4.30;2.25;;;;;;;41.58;21.10;98858.69;5032556;28;20188;-52
2021/08/10 11:02:12;;;;;;;4.68;2.58;;;;;;;41.67;21.04;98859.00;5032362;28;20029;-52
2021/08/10 11:04:38;;;;;;;6.93;2.47;;;;;;;41.81;21.04;98858.88;5047579;28;20026;-52
2021/08/10 11:07:36;;;;;;;4.72;2.50;;;;;;;41.99;20.82;98858.72;5032406;28;20052;-53
2021/08/10 11:10:06;;;;;;;34.00;5.05;;;;;;;41.86;20.95;98852.94;5032224;28;20538;-52
2021/08/10 11:12:45;;;;;;;7.25;2.83;;;;;;;41.95;20.66;98854.44;5032522;28;20029;-52
2021/08/10 11:15:14;;;;;;;8.18;3.53;;;;;;;42.09;20.87;98852.34;5032224;28;20029;-53
2021/08/10 11:17:41;;;;;;;8.55;2.63;;;;;;;41.90;20.90;98850.94;5032138;28;20052;-52
2021/08/10 11:20:24;;;;;;;8.70;2.50;;;;;;;41.41;21.19;98844.63;5032110;28;20025;-52
2021/08/10 11:26:11;;;;;;;8.50;3.95;;;;;;;39.94;22.87;98847.91;5031111;28;20033;-52
2021/08/10 11:28:43;;;;;;;7.80;2.63;;;;;;;39.24;23.42;98841.94;5022157;28;20029;-53
2021/08/10 11:31:11;;;;;;;5.43;2.65;;;;;;;39.22;23.05;98845.09;5031966;28;20060;-52
2021/08/10 11:33:42;;;;;;;6.78;2.70;;;;;;;39.30;22.68;98845.84;5031911;28;20029;-52
2021/08/10 11:36:10;;;;;;;7.40;3.33;;;;;;;38.84;23.41;98846.50;5031823;28;20040;-52
2021/08/10 11:38:57;;;;;;;4.40;2.97;;;;;;;38.60;23.36;98845.22;5032201;28;20373;-52